sensor_id;sensor_type;location;lat;lon;timestamp;temperature;humidity
58517;DHT22;44308;50.810;0.284;2023-04-05T00:01:30;2.50;99.90
58517;DHT22;44308;50.810;0.284;2023-04-05T00:03:57;2.50;99.90
58517;DHT22;44308;50.810;0.284;2023-04-05T00:06:28;2.50;99.90
58517;DHT22;44308;50.810;0.284;2023-04-05T00:08:55;2.50;99.90
58517;DHT22;44308;50.810;0.284;2023-04-05T00:11:22;2.50;99.90
58517;DHT22;44308;50.810;0.284;2023-04-05T00:13:48;2.50;99.90
58517;DHT22;44308;50.810;0.284;2023-04-05T00:16:15;2.50;99.90
58517;DHT22;44308;50.810;0.284;2023-04-05T00:18:41;2.50;99.90
58517;DHT22;44308;50.810;0.284;2023-04-05T00:21:11;2.50;99.90
58517;DHT22;44308;50.810;0.284;2023-04-05T00:23:39;2.40;99.90
58517;DHT22;44308;50.810;0.284;2023-04-05T00:26:06;2.40;99.90
58517;DHT22;44308;50.810;0.284;2023-04-05T00:28:33;2.30;99.90
58517;DHT22;44308;50.810;0.284;2023-04-05T00:30:59;2.30;99.90
58517;DHT22;44308;50.810;0.284;2023-04-05T00:33:25;2.30;99.90
58517;DHT22;44308;50.810;0.284;2023-04-05T00:35:51;2.20;99.90
58517;DHT22;44308;50.810;0.284;2023-04-05T00:38:17;2.30;99.90
58517;DHT22;44308;50.810;0.284;2023-04-05T00:40:43;2.20;99.90
58517;DHT22;44308;50.810;0.284;2023-04-05T00:43:08;2.20;99.90
58517;DHT22;44308;50.810;0.284;2023-04-05T00:45:34;2.20;99.90
58517;DHT22;44308;50.810;0.284;2023-04-05T00:48:00;2.30;99.90
58517;DHT22;44308;50.810;0.284;2023-04-05T00:50:26;2.20;99.90
58517;DHT22;44308;50.810;0.284;2023-04-05T00:52:59;2.20;99.90
58517;DHT22;44308;50.810;0.284;2023-04-05T00:55:25;2.20;99.90
58517;DHT22;44308;50.810;0.284;2023-04-05T00:57:52;2.20;99.90
58517;DHT22;44308;50.810;0.284;2023-04-05T01:00:19;2.10;99.90
58517;DHT22;44308;50.810;0.284;2023-04-05T01:02:51;2.10;99.90
58517;DHT22;44308;50.810;0.284;2023-04-05T01:10:36;2.00;99.90
58517;DHT22;44308;50.810;0.284;2023-04-05T01:13:04;2.00;99.90
58517;DHT22;44308;50.810;0.284;2023-04-05T01:15:30;2.00;99.90
58517;DHT22;44308;50.810;0.284;2023-04-05T01:17:57;2.00;99.90
58517;DHT22;44308;50.810;0.284;2023-04-05T01:20:32;2.00;99.90
58517;DHT22;44308;50.810;0.284;2023-04-05T01:31:26;2.10;99.90
58517;DHT22;44308;50.810;0.284;2023-04-05T01:37:02;2.10;99.90
58517;DHT22;44308;50.810;0.284;2023-04-05T01:39:31;2.10;99.90
58517;DHT22;44308;50.810;0.284;2023-04-05T01:42:00;2.10;99.90
58517;DHT22;44308;50.810;0.284;2023-04-05T01:44:27;2.00;99.90
58517;DHT22;44308;50.810;0.284;2023-04-05T01:46:52;2.00;99.90
58517;DHT22;44308;50.810;0.284;2023-04-05T01:49:18;2.00;99.90
58517;DHT22;44308;50.810;0.284;2023-04-05T01:51:47;1.90;99.90
58517;DHT22;44308;50.810;0.284;2023-04-05T01:54:12;1.90;99.90
58517;DHT22;44308;50.810;0.284;2023-04-05T01:56:38;1.90;99.90
58517;DHT22;44308;50.810;0.284;2023-04-05T01:59:04;1.90;99.90
58517;DHT22;44308;50.810;0.284;2023-04-05T02:01:30;1.80;99.90
58517;DHT22;44308;50.810;0.284;2023-04-05T02:03:55;1.80;99.90
58517;DHT22;44308;50.810;0.284;2023-04-05T02:06:21;1.80;99.90
58517;DHT22;44308;50.810;0.284;2023-04-05T02:08:47;1.80;99.90
58517;DHT22;44308;50.810;0.284;2023-04-05T02:11:13;1.80;99.90
58517;DHT22;44308;50.810;0.284;2023-04-05T02:13:38;1.80;99.90
58517;DHT22;44308;50.810;0.284;2023-04-05T02:16:07;1.80;99.90
58517;DHT22;44308;50.810;0.284;2023-04-05T02:18:32;1.80;99.90
58517;DHT22;44308;50.810;0.284;2023-04-05T02:21:03;1.80;99.90
58517;DHT22;44308;50.810;0.284;2023-04-05T02:23:30;1.80;99.90
58517;DHT22;44308;50.810;0.284;2023-04-05T02:25:56;1.80;99.90
58517;DHT22;44308;50.810;0.284;2023-04-05T02:28:22;1.80;99.90
58517;DHT22;44308;50.810;0.284;2023-04-05T02:30:48;1.70;99.90
58517;DHT22;44308;50.810;0.284;2023-04-05T02:33:16;1.70;99.90
58517;DHT22;44308;50.810;0.284;2023-04-05T02:35:41;1.60;99.90
58517;DHT22;44308;50.810;0.284;2023-04-05T02:38:07;1.60;99.90
58517;DHT22;44308;50.810;0.284;2023-04-05T02:40:33;1.50;99.90
58517;DHT22;44308;50.810;0.284;2023-04-05T02:42:59;1.50;99.90
58517;DHT22;44308;50.810;0.284;2023-04-05T02:45:25;1.40;99.90
58517;DHT22;44308;50.810;0.284;2023-04-05T02:47:52;1.40;99.90
58517;DHT22;44308;50.810;0.284;2023-04-05T02:50:18;1.30;99.90
58517;DHT22;44308;50.810;0.284;2023-04-05T02:52:48;1.30;99.90
58517;DHT22;44308;50.810;0.284;2023-04-05T02:55:15;1.30;99.90
58517;DHT22;44308;50.810;0.284;2023-04-05T02:57:42;1.30;99.90
58517;DHT22;44308;50.810;0.284;2023-04-05T03:00:09;1.30;99.90
58517;DHT22;44308;50.810;0.284;2023-04-05T03:02:36;1.30;99.90
58517;DHT22;44308;50.810;0.284;2023-04-05T03:05:05;1.20;99.90
58517;DHT22;44308;50.810;0.284;2023-04-05T03:07:32;1.20;99.90
58517;DHT22;44308;50.810;0.284;2023-04-05T03:09:58;1.20;99.90
58517;DHT22;44308;50.810;0.284;2023-04-05T03:12:24;1.20;99.90
58517;DHT22;44308;50.810;0.284;2023-04-05T03:14:50;1.20;99.90
58517;DHT22;44308;50.810;0.284;2023-04-05T03:17:15;1.20;99.90
58517;DHT22;44308;50.810;0.284;2023-04-05T03:19:41;1.30;99.90
58517;DHT22;44308;50.810;0.284;2023-04-05T03:22:07;1.20;99.90
58517;DHT22;44308;50.810;0.284;2023-04-05T03:24:33;1.20;99.90
58517;DHT22;44308;50.810;0.284;2023-04-05T03:27:02;1.20;99.90
58517;DHT22;44308;50.810;0.284;2023-04-05T03:29:30;1.20;99.90
58517;DHT22;44308;50.810;0.284;2023-04-05T03:31:57;1.30;99.90
58517;DHT22;44308;50.810;0.284;2023-04-05T03:34:23;1.30;99.90
58517;DHT22;44308;50.810;0.284;2023-04-05T03:36:53;1.30;99.90
58517;DHT22;44308;50.810;0.284;2023-04-05T03:39:19;1.30;99.90
58517;DHT22;44308;50.810;0.284;2023-04-05T03:41:46;1.30;99.90
58517;DHT22;44308;50.810;0.284;2023-04-05T03:44:11;1.30;99.90
58517;DHT22;44308;50.810;0.284;2023-04-05T03:46:37;1.30;99.90
58517;DHT22;44308;50.810;0.284;2023-04-05T03:49:03;1.20;99.90
58517;DHT22;44308;50.810;0.284;2023-04-05T03:51:29;1.30;99.90
58517;DHT22;44308;50.810;0.284;2023-04-05T03:53:55;1.30;99.90
58517;DHT22;44308;50.810;0.284;2023-04-05T03:56:21;1.40;99.90
58517;DHT22;44308;50.810;0.284;2023-04-05T03:58:46;1.30;99.90
58517;DHT22;44308;50.810;0.284;2023-04-05T04:01:12;1.30;99.90
58517;DHT22;44308;50.810;0.284;2023-04-05T04:03:39;1.40;99.90
58517;DHT22;44308;50.810;0.284;2023-04-05T04:06:06;1.40;99.90
58517;DHT22;44308;50.810;0.284;2023-04-05T04:08:32;1.40;99.90
58517;DHT22;44308;50.810;0.284;2023-04-05T04:10:58;1.50;99.90
58517;DHT22;44308;50.810;0.284;2023-04-05T04:13:23;1.50;99.90
58517;DHT22;44308;50.810;0.284;2023-04-05T04:15:49;1.50;99.90
58517;DHT22;44308;50.810;0.284;2023-04-05T04:18:15;1.50;99.90
58517;DHT22;44308;50.810;0.284;2023-04-05T04:20:41;1.60;99.90
58517;DHT22;44308;50.810;0.284;2023-04-05T04:23:07;1.60;99.90
58517;DHT22;44308;50.810;0.284;2023-04-05T04:25:37;1.70;99.90
58517;DHT22;44308;50.810;0.284;2023-04-05T04:28:04;1.80;99.90
58517;DHT22;44308;50.810;0.284;2023-04-05T04:30:34;1.80;99.90
58517;DHT22;44308;50.810;0.284;2023-04-05T04:33:00;1.80;99.90
58517;DHT22;44308;50.810;0.284;2023-04-05T04:35:31;1.90;99.90
58517;DHT22;44308;50.810;0.284;2023-04-05T04:38:00;1.90;99.90
58517;DHT22;44308;50.810;0.284;2023-04-05T04:40:31;1.90;99.90
58517;DHT22;44308;50.810;0.284;2023-04-05T04:43:13;2.00;99.90
58517;DHT22;44308;50.810;0.284;2023-04-05T04:45:46;1.90;99.90
58517;DHT22;44308;50.810;0.284;2023-04-05T04:48:13;1.90;99.90
58517;DHT22;44308;50.810;0.284;2023-04-05T04:50:41;1.90;99.90
58517;DHT22;44308;50.810;0.284;2023-04-05T04:53:11;2.00;99.90
58517;DHT22;44308;50.810;0.284;2023-04-05T04:55:41;2.00;99.90
58517;DHT22;44308;50.810;0.284;2023-04-05T04:58:08;2.00;99.90
58517;DHT22;44308;50.810;0.284;2023-04-05T05:00:41;2.00;99.90
58517;DHT22;44308;50.810;0.284;2023-04-05T05:03:08;2.00;99.90
58517;DHT22;44308;50.810;0.284;2023-04-05T05:05:41;2.00;99.90
58517;DHT22;44308;50.810;0.284;2023-04-05T05:08:07;2.00;99.90
58517;DHT22;44308;50.810;0.284;2023-04-05T05:10:33;1.90;99.90
58517;DHT22;44308;50.810;0.284;2023-04-05T05:13:01;1.90;99.90
58517;DHT22;44308;50.810;0.284;2023-04-05T05:15:26;2.00;99.90
58517;DHT22;44308;50.810;0.284;2023-04-05T05:17:53;2.00;99.90
58517;DHT22;44308;50.810;0.284;2023-04-05T05:20:24;1.90;99.90
58517;DHT22;44308;50.810;0.284;2023-04-05T05:22:51;2.00;99.90
58517;DHT22;44308;50.810;0.284;2023-04-05T05:25:17;2.00;99.90
58517;DHT22;44308;50.810;0.284;2023-04-05T05:27:43;2.00;99.90
58517;DHT22;44308;50.810;0.284;2023-04-05T05:30:09;2.10;99.90
58517;DHT22;44308;50.810;0.284;2023-04-05T05:32:35;2.00;99.90
58517;DHT22;44308;50.810;0.284;2023-04-05T05:35:01;2.00;99.90
58517;DHT22;44308;50.810;0.284;2023-04-05T05:37:31;2.00;99.90
58517;DHT22;44308;50.810;0.284;2023-04-05T05:39:57;2.00;99.90
58517;DHT22;44308;50.810;0.284;2023-04-05T05:42:23;2.00;99.90
58517;DHT22;44308;50.810;0.284;2023-04-05T05:44:49;2.00;99.90
58517;DHT22;44308;50.810;0.284;2023-04-05T05:47:15;2.00;99.90
58517;DHT22;44308;50.810;0.284;2023-04-05T05:49:40;2.10;99.90
58517;DHT22;44308;50.810;0.284;2023-04-05T05:52:06;2.10;99.90
58517;DHT22;44308;50.810;0.284;2023-04-05T05:54:32;2.10;99.90
58517;DHT22;44308;50.810;0.284;2023-04-05T05:56:57;2.30;99.90
58517;DHT22;44308;50.810;0.284;2023-04-05T05:59:23;2.30;99.90
58517;DHT22;44308;50.810;0.284;2023-04-05T06:01:49;2.30;99.90
58517;DHT22;44308;50.810;0.284;2023-04-05T06:04:16;2.40;99.90
58517;DHT22;44308;50.810;0.284;2023-04-05T06:06:42;2.40;99.90
58517;DHT22;44308;50.810;0.284;2023-04-05T06:09:09;2.40;99.90
58517;DHT22;44308;50.810;0.284;2023-04-05T06:11:34;2.50;99.90
58517;DHT22;44308;50.810;0.284;2023-04-05T06:14:02;2.60;99.90
58517;DHT22;44308;50.810;0.284;2023-04-05T06:16:28;2.70;99.90
58517;DHT22;44308;50.810;0.284;2023-04-05T06:18:55;2.80;99.90
58517;DHT22;44308;50.810;0.284;2023-04-05T06:21:22;2.90;99.90
58517;DHT22;44308;50.810;0.284;2023-04-05T06:23:49;2.90;99.90
58517;DHT22;44308;50.810;0.284;2023-04-05T06:26:16;3.10;99.90
58517;DHT22;44308;50.810;0.284;2023-04-05T06:28:43;3.20;99.90
58517;DHT22;44308;50.810;0.284;2023-04-05T06:31:09;3.30;99.90
58517;DHT22;44308;50.810;0.284;2023-04-05T06:33:34;3.60;99.90
58517;DHT22;44308;50.810;0.284;2023-04-05T06:36:00;4.00;99.90
58517;DHT22;44308;50.810;0.284;2023-04-05T06:38:26;4.40;99.90
58517;DHT22;44308;50.810;0.284;2023-04-05T06:40:51;4.90;99.90
58517;DHT22;44308;50.810;0.284;2023-04-05T06:43:17;5.30;99.90
58517;DHT22;44308;50.810;0.284;2023-04-05T06:45:43;5.80;99.90
58517;DHT22;44308;50.810;0.284;2023-04-05T06:48:08;6.40;99.90
58517;DHT22;44308;50.810;0.284;2023-04-05T06:50:34;7.10;99.90
58517;DHT22;44308;50.810;0.284;2023-04-05T06:53:00;7.50;99.90
58517;DHT22;44308;50.810;0.284;2023-04-05T06:55:25;8.10;99.90
58517;DHT22;44308;50.810;0.284;2023-04-05T06:57:54;8.50;99.90
58517;DHT22;44308;50.810;0.284;2023-04-05T07:00:20;9.00;99.90
58517;DHT22;44308;50.810;0.284;2023-04-05T07:02:46;9.40;99.90
58517;DHT22;44308;50.810;0.284;2023-04-05T07:05:11;10.10;99.90
58517;DHT22;44308;50.810;0.284;2023-04-05T07:07:38;10.70;99.90
58517;DHT22;44308;50.810;0.284;2023-04-05T07:10:05;11.20;99.90
58517;DHT22;44308;50.810;0.284;2023-04-05T07:12:31;11.90;99.90
58517;DHT22;44308;50.810;0.284;2023-04-05T07:14:58;11.60;99.90
58517;DHT22;44308;50.810;0.284;2023-04-05T07:17:24;11.70;99.90
58517;DHT22;44308;50.810;0.284;2023-04-05T07:19:50;11.40;99.90
58517;DHT22;44308;50.810;0.284;2023-04-05T07:22:15;11.00;99.90
58517;DHT22;44308;50.810;0.284;2023-04-05T07:24:43;10.40;99.90
58517;DHT22;44308;50.810;0.284;2023-04-05T07:27:09;10.30;99.90
58517;DHT22;44308;50.810;0.284;2023-04-05T07:29:34;10.10;99.90
58517;DHT22;44308;50.810;0.284;2023-04-05T07:32:05;10.00;99.90
58517;DHT22;44308;50.810;0.284;2023-04-05T07:34:33;10.00;99.90
58517;DHT22;44308;50.810;0.284;2023-04-05T07:36:59;9.90;99.90
58517;DHT22;44308;50.810;0.284;2023-04-05T07:39:25;9.80;99.90
58517;DHT22;44308;50.810;0.284;2023-04-05T07:41:51;9.90;99.90
58517;DHT22;44308;50.810;0.284;2023-04-05T07:44:17;9.80;99.90
58517;DHT22;44308;50.810;0.284;2023-04-05T07:46:43;9.80;99.90
58517;DHT22;44308;50.810;0.284;2023-04-05T07:49:10;9.70;99.90
58517;DHT22;44308;50.810;0.284;2023-04-05T07:51:36;9.70;99.90
58517;DHT22;44308;50.810;0.284;2023-04-05T07:54:03;9.70;99.90
58517;DHT22;44308;50.810;0.284;2023-04-05T07:56:32;9.70;99.90
58517;DHT22;44308;50.810;0.284;2023-04-05T07:58:58;9.70;99.90
58517;DHT22;44308;50.810;0.284;2023-04-05T08:01:24;9.70;99.90
58517;DHT22;44308;50.810;0.284;2023-04-05T08:03:56;9.60;99.90
58517;DHT22;44308;50.810;0.284;2023-04-05T08:06:22;9.60;99.90
58517;DHT22;44308;50.810;0.284;2023-04-05T08:08:49;9.60;99.90
58517;DHT22;44308;50.810;0.284;2023-04-05T08:11:15;9.60;99.90
58517;DHT22;44308;50.810;0.284;2023-04-05T08:13:40;9.70;99.90
58517;DHT22;44308;50.810;0.284;2023-04-05T08:16:07;9.60;99.90
58517;DHT22;44308;50.810;0.284;2023-04-05T08:18:33;9.80;99.90
58517;DHT22;44308;50.810;0.284;2023-04-05T08:20:59;9.90;99.90
58517;DHT22;44308;50.810;0.284;2023-04-05T08:23:25;10.00;99.90
58517;DHT22;44308;50.810;0.284;2023-04-05T08:25:52;10.10;99.90
58517;DHT22;44308;50.810;0.284;2023-04-05T08:28:18;10.20;99.90
58517;DHT22;44308;50.810;0.284;2023-04-05T08:30:43;10.20;99.90
58517;DHT22;44308;50.810;0.284;2023-04-05T08:33:10;10.30;99.90
58517;DHT22;44308;50.810;0.284;2023-04-05T08:35:36;10.30;99.90
58517;DHT22;44308;50.810;0.284;2023-04-05T08:38:03;10.40;99.90
58517;DHT22;44308;50.810;0.284;2023-04-05T08:40:40;10.70;99.90
58517;DHT22;44308;50.810;0.284;2023-04-05T08:43:21;10.60;99.90
58517;DHT22;44308;50.810;0.284;2023-04-05T08:45:51;10.70;99.90
58517;DHT22;44308;50.810;0.284;2023-04-05T08:48:18;10.90;99.90
58517;DHT22;44308;50.810;0.284;2023-04-05T08:50:51;11.10;99.90
58517;DHT22;44308;50.810;0.284;2023-04-05T08:53:17;11.20;99.90
58517;DHT22;44308;50.810;0.284;2023-04-05T08:55:44;11.20;99.90
58517;DHT22;44308;50.810;0.284;2023-04-05T08:58:12;11.20;99.90
58517;DHT22;44308;50.810;0.284;2023-04-05T09:00:40;11.30;99.90
58517;DHT22;44308;50.810;0.284;2023-04-05T09:03:11;11.30;99.90
58517;DHT22;44308;50.810;0.284;2023-04-05T09:05:45;11.30;99.90
58517;DHT22;44308;50.810;0.284;2023-04-05T09:08:16;11.40;99.90
58517;DHT22;44308;50.810;0.284;2023-04-05T09:10:44;11.40;99.90
58517;DHT22;44308;50.810;0.284;2023-04-05T09:13:15;11.50;99.90
58517;DHT22;44308;50.810;0.284;2023-04-05T09:15:40;11.70;99.90
58517;DHT22;44308;50.810;0.284;2023-04-05T09:18:06;11.90;99.90
58517;DHT22;44308;50.810;0.284;2023-04-05T09:20:32;11.90;99.90
58517;DHT22;44308;50.810;0.284;2023-04-05T09:22:57;12.00;99.90
58517;DHT22;44308;50.810;0.284;2023-04-05T09:25:37;12.10;99.90
58517;DHT22;44308;50.810;0.284;2023-04-05T09:28:10;12.00;99.90
58517;DHT22;44308;50.810;0.284;2023-04-05T09:30:46;12.20;99.90
58517;DHT22;44308;50.810;0.284;2023-04-05T09:33:17;12.50;99.90
58517;DHT22;44308;50.810;0.284;2023-04-05T09:35:43;12.80;99.90
58517;DHT22;44308;50.810;0.284;2023-04-05T09:38:09;13.00;99.90
58517;DHT22;44308;50.810;0.284;2023-04-05T09:40:46;13.30;99.90
58517;DHT22;44308;50.810;0.284;2023-04-05T09:43:34;13.50;99.90
58517;DHT22;44308;50.810;0.284;2023-04-05T09:46:00;13.60;99.90
58517;DHT22;44308;50.810;0.284;2023-04-05T09:48:47;13.40;99.90
58517;DHT22;44308;50.810;0.284;2023-04-05T09:51:16;13.70;99.90
58517;DHT22;44308;50.810;0.284;2023-04-05T09:54:02;13.40;99.90
58517;DHT22;44308;50.810;0.284;2023-04-05T09:56:37;13.30;99.90
58517;DHT22;44308;50.810;0.284;2023-04-05T09:59:08;13.30;99.90
58517;DHT22;44308;50.810;0.284;2023-04-05T10:01:38;13.20;99.90
58517;DHT22;44308;50.810;0.284;2023-04-05T10:04:08;13.10;99.90
58517;DHT22;44308;50.810;0.284;2023-04-05T10:06:41;13.00;99.90
58517;DHT22;44308;50.810;0.284;2023-04-05T10:09:08;13.00;99.90
58517;DHT22;44308;50.810;0.284;2023-04-05T10:11:36;12.90;99.90
58517;DHT22;44308;50.810;0.284;2023-04-05T10:14:06;12.40;99.90
58517;DHT22;44308;50.810;0.284;2023-04-05T10:17:22;12.30;99.90
58517;DHT22;44308;50.810;0.284;2023-04-05T10:22:10;12.30;99.90
58517;DHT22;44308;50.810;0.284;2023-04-05T10:24:48;12.40;99.90
58517;DHT22;44308;50.810;0.284;2023-04-05T10:27:31;12.50;99.90
58517;DHT22;44308;50.810;0.284;2023-04-05T10:30:08;12.70;99.90
58517;DHT22;44308;50.810;0.284;2023-04-05T10:40:21;13.60;99.90
58517;DHT22;44308;50.810;0.284;2023-04-05T10:42:47;13.60;99.90
58517;DHT22;44308;50.810;0.284;2023-04-05T10:45:16;13.90;99.90
58517;DHT22;44308;50.810;0.284;2023-04-05T10:47:57;13.80;99.90
58517;DHT22;44308;50.810;0.284;2023-04-05T10:50:25;14.00;99.90
58517;DHT22;44308;50.810;0.284;2023-04-05T10:52:51;13.70;99.90
58517;DHT22;44308;50.810;0.284;2023-04-05T10:55:20;13.80;99.90
58517;DHT22;44308;50.810;0.284;2023-04-05T10:57:49;13.70;99.90
58517;DHT22;44308;50.810;0.284;2023-04-05T11:00:16;14.00;99.90
58517;DHT22;44308;50.810;0.284;2023-04-05T11:02:42;14.30;99.90
58517;DHT22;44308;50.810;0.284;2023-04-05T11:05:31;14.80;99.90
58517;DHT22;44308;50.810;0.284;2023-04-05T11:08:07;15.00;99.90
58517;DHT22;44308;50.810;0.284;2023-04-05T11:10:38;14.80;99.90
58517;DHT22;44308;50.810;0.284;2023-04-05T11:13:05;14.70;99.90
58517;DHT22;44308;50.810;0.284;2023-04-05T11:15:32;14.20;99.90
58517;DHT22;44308;50.810;0.284;2023-04-05T11:18:20;14.10;99.90
58517;DHT22;44308;50.810;0.284;2023-04-05T11:20:51;14.40;99.90
58517;DHT22;44308;50.810;0.284;2023-04-05T11:23:21;14.50;99.90
58517;DHT22;44308;50.810;0.284;2023-04-05T11:26:03;14.90;99.90
58517;DHT22;44308;50.810;0.284;2023-04-05T11:28:33;14.70;99.90
58517;DHT22;44308;50.810;0.284;2023-04-05T11:33:59;14.20;99.90
58517;DHT22;44308;50.810;0.284;2023-04-05T11:36:38;14.20;99.90
58517;DHT22;44308;50.810;0.284;2023-04-05T11:42:00;14.50;99.90
58517;DHT22;44308;50.810;0.284;2023-04-05T11:44:28;14.70;99.90
58517;DHT22;44308;50.810;0.284;2023-04-05T11:46:56;14.60;99.90
58517;DHT22;44308;50.810;0.284;2023-04-05T11:49:23;14.50;99.90
58517;DHT22;44308;50.810;0.284;2023-04-05T11:51:50;14.80;99.90
58517;DHT22;44308;50.810;0.284;2023-04-05T11:54:30;15.10;99.90
58517;DHT22;44308;50.810;0.284;2023-04-05T11:56:57;15.10;99.90
58517;DHT22;44308;50.810;0.284;2023-04-05T11:59:33;14.90;99.90
58517;DHT22;44308;50.810;0.284;2023-04-05T12:02:04;14.50;99.90
58517;DHT22;44308;50.810;0.284;2023-04-05T12:04:33;14.20;99.90
58517;DHT22;44308;50.810;0.284;2023-04-05T12:07:15;14.20;99.90
58517;DHT22;44308;50.810;0.284;2023-04-05T12:12:39;15.40;99.90
58517;DHT22;44308;50.810;0.284;2023-04-05T12:15:07;15.60;99.90
58517;DHT22;44308;50.810;0.284;2023-04-05T12:17:51;15.80;99.90
58517;DHT22;44308;50.810;0.284;2023-04-05T12:20:22;15.70;99.90
58517;DHT22;44308;50.810;0.284;2023-04-05T12:22:51;15.60;99.90
58517;DHT22;44308;50.810;0.284;2023-04-05T12:25:18;15.40;99.90
58517;DHT22;44308;50.810;0.284;2023-04-05T12:27:44;15.10;99.90
58517;DHT22;44308;50.810;0.284;2023-04-05T12:30:11;15.20;99.90
58517;DHT22;44308;50.810;0.284;2023-04-05T12:32:45;14.30;99.90
58517;DHT22;44308;50.810;0.284;2023-04-05T12:37:38;14.50;99.90
58517;DHT22;44308;50.810;0.284;2023-04-05T12:40:08;14.10;99.90
58517;DHT22;44308;50.810;0.284;2023-04-05T12:42:35;14.40;99.90
58517;DHT22;44308;50.810;0.284;2023-04-05T12:45:09;14.40;99.90
58517;DHT22;44308;50.810;0.284;2023-04-05T12:47:50;14.50;99.90
58517;DHT22;44308;50.810;0.284;2023-04-05T12:50:18;14.50;99.90
58517;DHT22;44308;50.810;0.284;2023-04-05T12:52:56;14.20;99.90
58517;DHT22;44308;50.810;0.284;2023-04-05T12:55:23;14.30;99.90
58517;DHT22;44308;50.810;0.284;2023-04-05T12:57:55;14.60;99.90
58517;DHT22;44308;50.810;0.284;2023-04-05T13:00:24;14.70;99.90
58517;DHT22;44308;50.810;0.284;2023-04-05T13:02:55;14.60;99.90
58517;DHT22;44308;50.810;0.284;2023-04-05T13:05:28;14.50;99.90
58517;DHT22;44308;50.810;0.284;2023-04-05T13:07:54;14.10;99.90
58517;DHT22;44308;50.810;0.284;2023-04-05T13:10:21;14.10;99.90
58517;DHT22;44308;50.810;0.284;2023-04-05T13:12:49;14.00;99.90
58517;DHT22;44308;50.810;0.284;2023-04-05T13:15:15;13.90;99.90
58517;DHT22;44308;50.810;0.284;2023-04-05T13:17:42;13.80;99.90
58517;DHT22;44308;50.810;0.284;2023-04-05T13:20:10;13.90;99.90
58517;DHT22;44308;50.810;0.284;2023-04-05T13:22:40;14.10;99.90
58517;DHT22;44308;50.810;0.284;2023-04-05T13:25:07;14.60;99.90
58517;DHT22;44308;50.810;0.284;2023-04-05T13:27:32;15.10;99.90
58517;DHT22;44308;50.810;0.284;2023-04-05T13:29:58;15.30;99.90
58517;DHT22;44308;50.810;0.284;2023-04-05T13:32:28;15.60;99.90
58517;DHT22;44308;50.810;0.284;2023-04-05T13:34:53;15.70;99.90
58517;DHT22;44308;50.810;0.284;2023-04-05T13:37:19;15.80;99.90
58517;DHT22;44308;50.810;0.284;2023-04-05T13:39:45;15.20;99.90
58517;DHT22;44308;50.810;0.284;2023-04-05T13:42:11;15.20;99.90
58517;DHT22;44308;50.810;0.284;2023-04-05T13:44:36;15.10;99.90
58517;DHT22;44308;50.810;0.284;2023-04-05T13:47:03;15.00;99.90
58517;DHT22;44308;50.810;0.284;2023-04-05T13:49:28;14.90;99.90
58517;DHT22;44308;50.810;0.284;2023-04-05T13:51:55;14.30;99.90
58517;DHT22;44308;50.810;0.284;2023-04-05T13:54:20;13.80;99.90
58517;DHT22;44308;50.810;0.284;2023-04-05T13:56:46;13.40;99.90
58517;DHT22;44308;50.810;0.284;2023-04-05T13:59:12;13.00;99.90
58517;DHT22;44308;50.810;0.284;2023-04-05T14:01:42;13.10;99.90
58517;DHT22;44308;50.810;0.284;2023-04-05T14:04:09;13.30;99.90
58517;DHT22;44308;50.810;0.284;2023-04-05T14:06:35;13.30;99.90
58517;DHT22;44308;50.810;0.284;2023-04-05T14:09:00;13.60;99.90
58517;DHT22;44308;50.810;0.284;2023-04-05T14:11:29;13.60;99.90
58517;DHT22;44308;50.810;0.284;2023-04-05T14:13:56;13.70;99.90
58517;DHT22;44308;50.810;0.284;2023-04-05T14:16:22;13.00;99.90
58517;DHT22;44308;50.810;0.284;2023-04-05T14:18:47;13.00;99.90
58517;DHT22;44308;50.810;0.284;2023-04-05T14:21:13;13.10;99.90
58517;DHT22;44308;50.810;0.284;2023-04-05T14:23:39;13.00;99.90
58517;DHT22;44308;50.810;0.284;2023-04-05T14:26:05;13.00;99.90
58517;DHT22;44308;50.810;0.284;2023-04-05T14:28:31;13.10;99.90
58517;DHT22;44308;50.810;0.284;2023-04-05T14:30:57;12.90;99.90
58517;DHT22;44308;50.810;0.284;2023-04-05T14:33:24;12.80;99.90
58517;DHT22;44308;50.810;0.284;2023-04-05T14:35:51;12.90;99.90
58517;DHT22;44308;50.810;0.284;2023-04-05T14:38:16;12.90;99.90
58517;DHT22;44308;50.810;0.284;2023-04-05T14:40:42;13.00;99.90
58517;DHT22;44308;50.810;0.284;2023-04-05T14:43:08;13.30;99.90
58517;DHT22;44308;50.810;0.284;2023-04-05T14:45:33;13.20;99.90
58517;DHT22;44308;50.810;0.284;2023-04-05T14:47:59;13.50;99.90
58517;DHT22;44308;50.810;0.284;2023-04-05T14:50:25;13.70;99.90
58517;DHT22;44308;50.810;0.284;2023-04-05T14:52:54;13.70;99.90
58517;DHT22;44308;50.810;0.284;2023-04-05T14:55:20;13.90;99.90
58517;DHT22;44308;50.810;0.284;2023-04-05T14:57:45;14.10;99.90
58517;DHT22;44308;50.810;0.284;2023-04-05T15:00:22;14.30;99.90
58517;DHT22;44308;50.810;0.284;2023-04-05T15:02:48;13.90;99.90
58517;DHT22;44308;50.810;0.284;2023-04-05T15:05:14;13.80;99.90
58517;DHT22;44308;50.810;0.284;2023-04-05T15:07:40;13.70;99.90
58517;DHT22;44308;50.810;0.284;2023-04-05T15:10:06;13.70;99.90
58517;DHT22;44308;50.810;0.284;2023-04-05T15:12:32;13.80;99.90
58517;DHT22;44308;50.810;0.284;2023-04-05T15:14:58;13.50;99.90
58517;DHT22;44308;50.810;0.284;2023-04-05T15:17:23;13.30;99.90
58517;DHT22;44308;50.810;0.284;2023-04-05T15:19:49;13.10;99.90
58517;DHT22;44308;50.810;0.284;2023-04-05T15:22:15;12.80;99.90
58517;DHT22;44308;50.810;0.284;2023-04-05T15:24:42;12.70;99.90
58517;DHT22;44308;50.810;0.284;2023-04-05T15:27:08;12.80;99.90
58517;DHT22;44308;50.810;0.284;2023-04-05T15:29:34;12.80;99.90
58517;DHT22;44308;50.810;0.284;2023-04-05T15:32:01;12.80;99.90
58517;DHT22;44308;50.810;0.284;2023-04-05T15:34:28;12.70;99.90
58517;DHT22;44308;50.810;0.284;2023-04-05T15:36:57;12.70;99.90
58517;DHT22;44308;50.810;0.284;2023-04-05T15:39:23;12.50;99.90
58517;DHT22;44308;50.810;0.284;2023-04-05T15:41:49;12.60;99.90
58517;DHT22;44308;50.810;0.284;2023-04-05T15:44:16;12.60;99.90
58517;DHT22;44308;50.810;0.284;2023-04-05T15:46:42;12.40;99.90
58517;DHT22;44308;50.810;0.284;2023-04-05T15:49:08;12.50;99.90
58517;DHT22;44308;50.810;0.284;2023-04-05T15:51:34;12.50;99.90
58517;DHT22;44308;50.810;0.284;2023-04-05T15:54:01;12.50;99.90
58517;DHT22;44308;50.810;0.284;2023-04-05T15:56:27;12.60;99.90
58517;DHT22;44308;50.810;0.284;2023-04-05T15:58:53;12.70;99.90
58517;DHT22;44308;50.810;0.284;2023-04-05T16:01:20;12.50;99.90
58517;DHT22;44308;50.810;0.284;2023-04-05T16:03:46;12.50;99.90
58517;DHT22;44308;50.810;0.284;2023-04-05T16:06:11;12.50;99.90
58517;DHT22;44308;50.810;0.284;2023-04-05T16:08:37;12.60;99.90
58517;DHT22;44308;50.810;0.284;2023-04-05T16:11:03;12.40;99.90
58517;DHT22;44308;50.810;0.284;2023-04-05T16:13:29;12.20;99.90
58517;DHT22;44308;50.810;0.284;2023-04-05T16:15:54;12.20;99.90
58517;DHT22;44308;50.810;0.284;2023-04-05T16:18:20;12.20;99.90
58517;DHT22;44308;50.810;0.284;2023-04-05T16:20:48;12.20;99.90